sensor_id;sensor_type;location;lat;lon;timestamp;pressure;altitude;pressure_sealevel;temperature;humidity
76478;BME280;65309;49.790;18.972;2023-07-31T00:02:39;59877.31;;;-145.46;70.54
76478;BME280;65309;49.790;18.972;2023-07-31T00:07:43;59873.09;;;-145.46;70.17
76478;BME280;65309;49.790;18.972;2023-07-31T00:12:45;59887.81;;;-145.46;69.93
76478;BME280;65309;49.790;18.972;2023-07-31T00:17:47;59881.50;;;-145.46;69.54
76478;BME280;65309;49.790;18.972;2023-07-31T00:22:51;59889.94;;;-145.46;69.52
76478;BME280;65309;49.790;18.972;2023-07-31T00:27:53;59875.22;;;-145.46;69.51
76478;BME280;65309;49.790;18.972;2023-07-31T00:32:55;59839.47;;;-145.46;70.41
76478;BME280;65309;49.790;18.972;2023-07-31T00:37:59;59871.00;;;-145.46;70.89
76478;BME280;65309;49.790;18.972;2023-07-31T00:43:01;59868.91;;;-145.46;70.86
76478;BME280;65309;49.790;18.972;2023-07-31T00:48:04;59864.69;;;-145.46;71.33
76478;BME280;65309;49.790;18.972;2023-07-31T00:53:09;59864.69;;;-145.46;71.15
76478;BME280;65309;49.790;18.972;2023-07-31T00:58:12;59847.88;;;-145.46;71.21
76478;BME280;65309;49.790;18.972;2023-07-31T01:03:14;59885.72;;;-145.46;71.09
76478;BME280;65309;49.790;18.972;2023-07-31T01:08:32;59883.63;;;-145.46;70.57
76478;BME280;65309;49.790;18.972;2023-07-31T01:13:38;59864.69;;;-145.46;71.00
76478;BME280;65309;49.790;18.972;2023-07-31T01:18:41;59875.22;;;-145.46;70.64
76478;BME280;65309;49.790;18.972;2023-07-31T01:23:55;59894.13;;;-145.46;69.78
76478;BME280;65309;49.790;18.972;2023-07-31T01:29:07;59877.31;;;-145.46;69.94
76478;BME280;65309;49.790;18.972;2023-07-31T01:34:11;59889.94;;;-145.46;70.62
76478;BME280;65309;49.790;18.972;2023-07-31T01:39:14;59873.09;;;-145.46;71.44
76478;BME280;65309;49.790;18.972;2023-07-31T01:44:18;59873.09;;;-145.46;72.18
76478;BME280;65309;49.790;18.972;2023-07-31T01:49:20;59868.91;;;-145.46;72.28
76478;BME280;65309;49.790;18.972;2023-07-31T01:54:23;59908.84;;;-145.46;72.58
76478;BME280;65309;49.790;18.972;2023-07-31T01:59:26;59873.09;;;-145.46;72.85
76478;BME280;65309;49.790;18.972;2023-07-31T02:04:28;59906.75;;;-145.46;72.97
76478;BME280;65309;49.790;18.972;2023-07-31T02:09:30;59887.81;;;-145.46;73.27
76478;BME280;65309;49.790;18.972;2023-07-31T02:14:34;59877.31;;;-145.46;73.44
76478;BME280;65309;49.790;18.972;2023-07-31T02:19:36;59919.34;;;-145.46;73.29
76478;BME280;65309;49.790;18.972;2023-07-31T02:24:38;59881.50;;;-145.46;73.58
76478;BME280;65309;49.790;18.972;2023-07-31T02:29:41;59910.94;;;-145.46;73.88
76478;BME280;65309;49.790;18.972;2023-07-31T02:34:43;59873.09;;;-145.46;74.06
76478;BME280;65309;49.790;18.972;2023-07-31T02:39:45;59843.69;;;-145.46;73.88
76478;BME280;65309;49.790;18.972;2023-07-31T02:44:49;59910.94;;;-145.46;74.16
76478;BME280;65309;49.790;18.972;2023-07-31T02:49:53;59889.94;;;-145.46;74.22
76478;BME280;65309;49.790;18.972;2023-07-31T02:54:55;59892.03;;;-145.46;74.41
76478;BME280;65309;49.790;18.972;2023-07-31T02:59:58;59910.94;;;-145.46;74.35
76478;BME280;65309;49.790;18.972;2023-07-31T03:05:00;59896.22;;;-145.46;74.72
76478;BME280;65309;49.790;18.972;2023-07-31T03:10:03;59879.41;;;-145.46;74.68
76478;BME280;65309;49.790;18.972;2023-07-31T03:15:08;59900.44;;;-145.46;74.76
76478;BME280;65309;49.790;18.972;2023-07-31T03:20:10;59955.09;;;-145.46;76.06
76478;BME280;65309;49.790;18.972;2023-07-31T03:25:13;59860.50;;;-145.46;76.73
76478;BME280;65309;49.790;18.972;2023-07-31T03:30:17;59917.25;;;-145.46;76.87
76478;BME280;65309;49.790;18.972;2023-07-31T03:35:19;59889.94;;;-145.46;75.19
76478;BME280;65309;49.790;18.972;2023-07-31T03:40:21;59900.44;;;-145.46;71.09
76478;BME280;65309;49.790;18.972;2023-07-31T03:45:24;59889.94;;;-145.46;73.57
76478;BME280;65309;49.790;18.972;2023-07-31T03:50:27;59885.72;;;-145.46;76.27
76478;BME280;65309;49.790;18.972;2023-07-31T03:55:29;59902.53;;;-145.46;76.67
76478;BME280;65309;49.790;18.972;2023-07-31T04:00:32;59913.03;;;-145.46;79.52
76478;BME280;65309;49.790;18.972;2023-07-31T04:05:38;59915.16;;;-145.46;81.18
76478;BME280;65309;49.790;18.972;2023-07-31T04:10:40;59913.03;;;-145.46;81.62
76478;BME280;65309;49.790;18.972;2023-07-31T04:15:43;59885.72;;;-145.46;82.28
76478;BME280;65309;49.790;18.972;2023-07-31T04:20:49;59896.22;;;-145.46;81.28
76478;BME280;65309;49.790;18.972;2023-07-31T04:25:51;59896.22;;;-145.46;81.13
76478;BME280;65309;49.790;18.972;2023-07-31T04:30:54;59898.34;;;-145.46;81.28
76478;BME280;65309;49.790;18.972;2023-07-31T04:35:57;59919.34;;;-145.46;80.08
76478;BME280;65309;49.790;18.972;2023-07-31T04:40:59;59915.16;;;-145.46;80.46
76478;BME280;65309;49.790;18.972;2023-07-31T04:46:02;59871.00;;;-145.46;77.21
76478;BME280;65309;49.790;18.972;2023-07-31T04:51:04;59940.38;;;-145.46;76.44
76478;BME280;65309;49.790;18.972;2023-07-31T04:56:06;59898.34;;;-145.46;76.00
76478;BME280;65309;49.790;18.972;2023-07-31T05:01:09;59919.34;;;-145.46;76.08
76478;BME280;65309;49.790;18.972;2023-07-31T05:06:11;59940.38;;;-145.46;75.12
76478;BME280;65309;49.790;18.972;2023-07-31T05:11:15;59919.34;;;-145.46;73.41
76478;BME280;65309;49.790;18.972;2023-07-31T05:16:19;59908.84;;;-145.46;72.41
76478;BME280;65309;49.790;18.972;2023-07-31T05:21:21;59898.34;;;-145.46;71.60
76478;BME280;65309;49.790;18.972;2023-07-31T05:26:23;59908.84;;;-145.46;72.70
76478;BME280;65309;49.790;18.972;2023-07-31T05:31:26;59913.03;;;-145.46;71.86
76478;BME280;65309;49.790;18.972;2023-07-31T05:36:28;59835.28;;;-145.46;69.67
76478;BME280;65309;49.790;18.972;2023-07-31T05:41:30;59856.28;;;-145.46;68.90
76478;BME280;65309;49.790;18.972;2023-07-31T05:46:35;59927.75;;;-145.46;66.12
76478;BME280;65309;49.790;18.972;2023-07-31T05:51:37;59896.22;;;-145.46;67.46
76478;BME280;65309;49.790;18.972;2023-07-31T05:56:39;59852.09;;;-145.46;67.03
76478;BME280;65309;49.790;18.972;2023-07-31T06:01:43;59894.13;;;-145.46;64.90
76478;BME280;65309;49.790;18.972;2023-07-31T06:06:45;59902.53;;;-145.46;63.83
76478;BME280;65309;49.790;18.972;2023-07-31T06:11:47;59864.69;;;-145.46;65.80
76478;BME280;65309;49.790;18.972;2023-07-31T06:16:51;59896.22;;;-145.46;65.01
76478;BME280;65309;49.790;18.972;2023-07-31T06:21:53;59871.00;;;-145.46;65.88
76478;BME280;65309;49.790;18.972;2023-07-31T06:26:55;59885.72;;;-145.46;63.97
76478;BME280;65309;49.790;18.972;2023-07-31T06:32:01;59847.88;;;-145.46;64.82
76478;BME280;65309;49.790;18.972;2023-07-31T06:37:05;59868.91;;;-145.46;63.93
76478;BME280;65309;49.790;18.972;2023-07-31T06:42:07;59854.19;;;-145.46;61.73
76478;BME280;65309;49.790;18.972;2023-07-31T06:47:11;59875.22;;;-145.46;63.36
76478;BME280;65309;49.790;18.972;2023-07-31T06:52:13;59885.72;;;-145.46;60.52
76478;BME280;65309;49.790;18.972;2023-07-31T06:57:15;59852.09;;;-145.46;60.44
76478;BME280;65309;49.790;18.972;2023-07-31T07:02:18;59852.09;;;-145.46;60.20
76478;BME280;65309;49.790;18.972;2023-07-31T07:07:21;59841.56;;;-145.46;60.01
76478;BME280;65309;49.790;18.972;2023-07-31T07:12:23;59822.66;;;-145.46;62.33
76478;BME280;65309;49.790;18.972;2023-07-31T07:17:28;59864.69;;;-145.46;59.04
76478;BME280;65309;49.790;18.972;2023-07-31T07:22:30;59860.50;;;-145.46;57.60
76478;BME280;65309;49.790;18.972;2023-07-31T07:27:32;59845.78;;;-145.46;58.06
76478;BME280;65309;49.790;18.972;2023-07-31T07:32:36;59881.50;;;-145.46;57.00
76478;BME280;65309;49.790;18.972;2023-07-31T07:37:38;59852.09;;;-145.46;59.06
76478;BME280;65309;49.790;18.972;2023-07-31T07:42:40;59843.69;;;-145.46;58.27
76478;BME280;65309;49.790;18.972;2023-07-31T07:47:43;59820.56;;;-145.46;57.87
76478;BME280;65309;49.790;18.972;2023-07-31T07:52:45;59822.66;;;-145.46;55.54
76478;BME280;65309;49.790;18.972;2023-07-31T07:57:47;59812.16;;;-145.46;53.56
76478;BME280;65309;49.790;18.972;2023-07-31T08:02:53;59835.28;;;-145.46;52.63
76478;BME280;65309;49.790;18.972;2023-07-31T08:07:55;59803.75;;;-145.46;54.17
76478;BME280;65309;49.790;18.972;2023-07-31T08:12:57;59826.84;;;-145.46;53.79
76478;BME280;65309;49.790;18.972;2023-07-31T08:18:01;59826.84;;;-145.46;53.04
76478;BME280;65309;49.790;18.972;2023-07-31T08:23:03;59835.28;;;-145.46;53.94
76478;BME280;65309;49.790;18.972;2023-07-31T08:28:06;59803.75;;;-145.46;53.58
76478;BME280;65309;49.790;18.972;2023-07-31T08:33:10;59776.41;;;-145.46;54.06
76478;BME280;65309;49.790;18.972;2023-07-31T08:38:12;59835.28;;;-145.46;49.79
76478;BME280;65309;49.790;18.972;2023-07-31T08:43:14;59784.81;;;-145.46;48.29
76478;BME280;65309;49.790;18.972;2023-07-31T08:48:17;59772.22;;;-145.46;50.38
76478;BME280;65309;49.790;18.972;2023-07-31T08:53:21;59791.13;;;-145.46;50.13
76478;BME280;65309;49.790;18.972;2023-07-31T08:58:23;59801.63;;;-145.46;51.30
76478;BME280;65309;49.790;18.972;2023-07-31T09:03:27;59789.03;;;-145.46;48.52
76478;BME280;65309;49.790;18.972;2023-07-31T09:08:31;59810.03;;;-145.46;50.19
76478;BME280;65309;49.790;18.972;2023-07-31T09:13:36;59797.44;;;-145.46;47.17
76478;BME280;65309;49.790;18.972;2023-07-31T09:18:54;59805.84;;;-145.46;47.86
76478;BME280;65309;49.790;18.972;2023-07-31T09:23:59;59797.44;;;-145.46;48.02
76478;BME280;65309;49.790;18.972;2023-07-31T09:29:05;59759.59;;;-145.46;46.57
76478;BME280;65309;49.790;18.972;2023-07-31T09:34:09;59782.72;;;-145.46;46.44
76478;BME280;65309;49.790;18.972;2023-07-31T09:39:14;59784.81;;;-145.46;44.49
76478;BME280;65309;49.790;18.972;2023-07-31T09:44:17;59736.47;;;-145.46;44.79
76478;BME280;65309;49.790;18.972;2023-07-31T09:49:21;59759.59;;;-145.46;45.27
76478;BME280;65309;49.790;18.972;2023-07-31T09:54:23;59797.44;;;-145.46;43.60
76478;BME280;65309;49.790;18.972;2023-07-31T09:59:25;59768.00;;;-145.46;44.23
76478;BME280;65309;49.790;18.972;2023-07-31T10:04:29;59784.81;;;-145.46;44.70
76478;BME280;65309;49.790;18.972;2023-07-31T10:09:33;59759.59;;;-145.46;43.18
76478;BME280;65309;49.790;18.972;2023-07-31T10:14:37;59791.13;;;-145.46;43.47
76478;BME280;65309;49.790;18.972;2023-07-31T10:19:42;59797.44;;;-145.46;44.15
76478;BME280;65309;49.790;18.972;2023-07-31T10:24:45;59780.63;;;-145.46;45.18
76478;BME280;65309;49.790;18.972;2023-07-31T10:29:48;59803.75;;;-145.46;44.15
76478;BME280;65309;49.790;18.972;2023-07-31T10:34:53;59793.22;;;-145.46;45.63
76478;BME280;65309;49.790;18.972;2023-07-31T10:40:00;59828.97;;;-145.46;41.65
76478;BME280;65309;49.790;18.972;2023-07-31T10:45:05;59820.56;;;-145.46;42.66
76478;BME280;65309;49.790;18.972;2023-07-31T10:50:21;59761.69;;;-145.46;43.57
76478;BME280;65309;49.790;18.972;2023-07-31T10:55:28;59789.03;;;-145.46;40.71
76478;BME280;65309;49.790;18.972;2023-07-31T11:00:30;59776.41;;;-145.46;40.83
76478;BME280;65309;49.790;18.972;2023-07-31T11:05:45;59793.22;;;-145.46;42.09
76478;BME280;65309;49.790;18.972;2023-07-31T11:10:49;59776.41;;;-145.46;44.67
76478;BME280;65309;49.790;18.972;2023-07-31T11:15:51;59789.03;;;-145.46;40.04
76478;BME280;65309;49.790;18.972;2023-07-31T11:20:55;59797.44;;;-145.46;40.53
76478;BME280;65309;49.790;18.972;2023-07-31T11:25:59;59784.81;;;-145.46;40.49
76478;BME280;65309;49.790;18.972;2023-07-31T11:31:02;59780.63;;;-145.46;40.64
76478;BME280;65309;49.790;18.972;2023-07-31T11:36:14;59776.41;;;-145.46;40.39
76478;BME280;65309;49.790;18.972;2023-07-31T11:41:16;59768.00;;;-145.46;38.66
76478;BME280;65309;49.790;18.972;2023-07-31T11:46:20;59776.41;;;-145.46;39.97
76478;BME280;65309;49.790;18.972;2023-07-31T11:51:23;59786.91;;;-145.46;39.29
76478;BME280;65309;49.790;18.972;2023-07-31T11:56:26;59797.44;;;-145.46;36.53
76478;BME280;65309;49.790;18.972;2023-07-31T12:01:29;59772.22;;;-145.46;38.26
76478;BME280;65309;49.790;18.972;2023-07-31T12:06:36;59734.38;;;-145.46;38.63
76478;BME280;65309;49.790;18.972;2023-07-31T12:11:43;59759.59;;;-145.46;37.70
76478;BME280;65309;49.790;18.972;2023-07-31T12:16:45;59768.00;;;-145.46;36.86
76478;BME280;65309;49.790;18.972;2023-07-31T12:21:49;59746.97;;;-145.46;37.07
76478;BME280;65309;49.790;18.972;2023-07-31T12:26:51;59776.41;;;-145.46;39.84
76478;BME280;65309;49.790;18.972;2023-07-31T12:31:54;59770.09;;;-145.46;41.54
76478;BME280;65309;49.790;18.972;2023-07-31T12:36:58;59730.16;;;-145.46;39.19
76478;BME280;65309;49.790;18.972;2023-07-31T12:42:00;59734.38;;;-145.46;37.05
76478;BME280;65309;49.790;18.972;2023-07-31T12:47:02;59725.97;;;-145.46;37.53
76478;BME280;65309;49.790;18.972;2023-07-31T12:52:07;59725.97;;;-145.46;38.98
76478;BME280;65309;49.790;18.972;2023-07-31T12:57:09;59759.59;;;-145.46;38.64
76478;BME280;65309;49.790;18.972;2023-07-31T13:02:11;59751.19;;;-145.46;37.76
76478;BME280;65309;49.790;18.972;2023-07-31T13:07:15;59755.38;;;-145.46;39.30
76478;BME280;65309;49.790;18.972;2023-07-31T13:12:17;59799.53;;;-145.46;40.15
76478;BME280;65309;49.790;18.972;2023-07-31T13:17:19;59742.78;;;-145.46;39.66
76478;BME280;65309;49.790;18.972;2023-07-31T13:22:23;59742.78;;;-145.46;40.01
76478;BME280;65309;49.790;18.972;2023-07-31T13:27:25;59774.31;;;-145.46;39.70
76478;BME280;65309;49.790;18.972;2023-07-31T13:32:27;59717.56;;;-145.46;38.19
76478;BME280;65309;49.790;18.972;2023-07-31T13:37:31;59719.66;;;-145.46;39.11
76478;BME280;65309;49.790;18.972;2023-07-31T13:42:33;59742.78;;;-145.46;38.24
76478;BME280;65309;49.790;18.972;2023-07-31T13:47:35;59732.28;;;-145.46;38.55
76478;BME280;65309;49.790;18.972;2023-07-31T13:52:40;59768.00;;;-145.46;39.16
76478;BME280;65309;49.790;18.972;2023-07-31T13:57:42;59730.16;;;-145.46;38.19
76478;BME280;65309;49.790;18.972;2023-07-31T14:02:45;59717.56;;;-145.46;39.53
76478;BME280;65309;49.790;18.972;2023-07-31T14:07:48;59721.75;;;-145.46;38.36
76478;BME280;65309;49.790;18.972;2023-07-31T14:12:50;59744.88;;;-145.46;38.89
76478;BME280;65309;49.790;18.972;2023-07-31T14:17:52;59734.38;;;-145.46;39.37
76478;BME280;65309;49.790;18.972;2023-07-31T14:22:57;59696.53;;;-145.46;40.13
76478;BME280;65309;49.790;18.972;2023-07-31T14:27:59;59744.88;;;-145.46;39.99
76478;BME280;65309;49.790;18.972;2023-07-31T14:33:01;59768.00;;;-145.46;40.08
76478;BME280;65309;49.790;18.972;2023-07-31T14:38:05;59807.94;;;-145.46;41.97
76478;BME280;65309;49.790;18.972;2023-07-31T14:43:07;59763.78;;;-145.46;40.79
76478;BME280;65309;49.790;18.972;2023-07-31T14:48:09;59770.09;;;-145.46;41.25
76478;BME280;65309;49.790;18.972;2023-07-31T14:53:13;59734.38;;;-145.46;41.80
76478;BME280;65309;49.790;18.972;2023-07-31T14:58:15;59770.09;;;-145.46;41.44
76478;BME280;65309;49.790;18.972;2023-07-31T15:03:19;59770.09;;;-145.46;42.75
76478;BME280;65309;49.790;18.972;2023-07-31T15:08:22;59784.81;;;-145.46;43.88
76478;BME280;65309;49.790;18.972;2023-07-31T15:13:24;59765.91;;;-145.46;45.89
76478;BME280;65309;49.790;18.972;2023-07-31T15:18:27;59742.78;;;-145.46;44.06
76478;BME280;65309;49.790;18.972;2023-07-31T15:23:30;59734.38;;;-145.46;42.24
76478;BME280;65309;49.790;18.972;2023-07-31T15:28:32;59746.97;;;-145.46;44.05
76478;BME280;65309;49.790;18.972;2023-07-31T15:33:36;59717.56;;;-145.46;41.93
76478;BME280;65309;49.790;18.972;2023-07-31T15:38:41;59753.28;;;-145.46;44.18
76478;BME280;65309;49.790;18.972;2023-07-31T15:43:43;59738.56;;;-145.46;42.07
76478;BME280;65309;49.790;18.972;2023-07-31T15:48:45;59784.81;;;-145.46;43.13
76478;BME280;65309;49.790;18.972;2023-07-31T15:53:49;59768.00;;;-145.46;44.24
76478;BME280;65309;49.790;18.972;2023-07-31T15:58:51;59751.19;;;-145.46;45.20
76478;BME280;65309;49.790;18.972;2023-07-31T16:03:53;59780.63;;;-145.46;45.36
76478;BME280;65309;49.790;18.972;2023-07-31T16:08:57;59780.63;;;-145.46;45.57
76478;BME280;65309;49.790;18.972;2023-07-31T16:13:59;59759.59;;;-145.46;46.19
76478;BME280;65309;49.790;18.972;2023-07-31T16:19:04;59751.19;;;-145.46;46.31
76478;BME280;65309;49.790;18.972;2023-07-31T16:24:07;59742.78;;;-145.46;48.42
76478;BME280;65309;49.790;18.972;2023-07-31T16:29:09;59761.69;;;-145.46;48.44
76478;BME280;65309;49.790;18.972;2023-07-31T16:34:11;59791.13;;;-145.46;50.14
76478;BME280;65309;49.790;18.972;2023-07-31T16:39:14;59768.00;;;-145.46;50.89
76478;BME280;65309;49.790;18.972;2023-07-31T16:44:19;59746.97;;;-145.46;48.15
76478;BME280;65309;49.790;18.972;2023-07-31T16:49:21;59772.22;;;-145.46;48.04
76478;BME280;65309;49.790;18.972;2023-07-31T16:54:24;59738.56;;;-145.46;47.13
76478;BME280;65309;49.790;18.972;2023-07-31T16:59:27;59740.69;;;-145.46;44.70
76478;BME280;65309;49.790;18.972;2023-07-31T17:04:29;59725.97;;;-145.46;43.74
76478;BME280;65309;49.790;18.972;2023-07-31T17:09:34;59730.16;;;-145.46;42.95
76478;BME280;65309;49.790;18.972;2023-07-31T17:14:36;59753.28;;;-145.46;46.90
76478;BME280;65309;49.790;18.972;2023-07-31T17:19:38;59738.56;;;-145.46;45.56
76478;BME280;65309;49.790;18.972;2023-07-31T17:24:42;59742.78;;;-145.46;47.53
76478;BME280;65309;49.790;18.972;2023-07-31T17:29:44;59782.72;;;-145.46;48.68
76478;BME280;65309;49.790;18.972;2023-07-31T17:34:46;59723.84;;;-145.46;49.38
76478;BME280;65309;49.790;18.972;2023-07-31T17:39:50;59719.66;;;-145.46;47.21
76478;BME280;65309;49.790;18.972;2023-07-31T17:44:52;59746.97;;;-145.46;48.82
76478;BME280;65309;49.790;18.972;2023-07-31T17:49:54;59789.03;;;-145.46;52.33
76478;BME280;65309;49.790;18.972;2023-07-31T17:54:57;59831.06;;;-145.46;55.37
76478;BME280;65309;49.790;18.972;2023-07-31T17:59:59;59810.03;;;-145.46;57.89
76478;BME280;65309;49.790;18.972;2023-07-31T18:05:02;59841.56;;;-145.46;60.23
76478;BME280;65309;49.790;18.972;2023-07-31T18:10:13;59837.38;;;-145.46;62.04
76478;BME280;65309;49.790;18.972;2023-07-31T18:15:15;59826.84;;;-145.46;62.36
76478;BME280;65309;49.790;18.972;2023-07-31T18:20:17;59845.78;;;-145.46;63.65
76478;BME280;65309;49.790;18.972;2023-07-31T18:25:22;59843.69;;;-145.46;64.39
76478;BME280;65309;49.790;18.972;2023-07-31T18:30:25;59845.78;;;-145.46;65.90
76478;BME280;65309;49.790;18.972;2023-07-31T18:35:30;59845.78;;;-145.46;66.87
76478;BME280;65309;49.790;18.972;2023-07-31T18:40:33;59854.19;;;-145.46;68.42
76478;BME280;65309;49.790;18.972;2023-07-31T18:45:36;59885.72;;;-145.46;68.78
76478;BME280;65309;49.790;18.972;2023-07-31T18:50:40;59835.28;;;-145.46;69.38
76478;BME280;65309;49.790;18.972;2023-07-31T18:55:45;59881.50;;;-145.46;69.84
76478;BME280;65309;49.790;18.972;2023-07-31T19:00:47;59885.72;;;-145.46;69.96
76478;BME280;65309;49.790;18.972;2023-07-31T19:05:49;59852.09;;;-145.46;70.43
76478;BME280;65309;49.790;18.972;2023-07-31T19:10:53;59860.50;;;-145.46;70.63
76478;BME280;65309;49.790;18.972;2023-07-31T19:15:55;59889.94;;;-145.46;70.95
76478;BME280;65309;49.790;18.972;2023-07-31T19:20:57;59894.13;;;-145.46;70.93
76478;BME280;65309;49.790;18.972;2023-07-31T19:26:00;59860.50;;;-145.46;70.84
76478;BME280;65309;49.790;18.972;2023-07-31T19:31:02;59881.50;;;-145.46;71.12
76478;BME280;65309;49.790;18.972;2023-07-31T19:36:04;59864.69;;;-145.46;71.40
76478;BME280;65309;49.790;18.972;2023-07-31T19:41:08;59875.22;;;-145.46;71.19
76478;BME280;65309;49.790;18.972;2023-07-31T19:46:10;59877.31;;;-145.46;71.25
76478;BME280;65309;49.790;18.972;2023-07-31T19:51:12;59868.91;;;-145.46;71.58
76478;BME280;65309;49.790;18.972;2023-07-31T19:56:15;59866.81;;;-145.46;71.63
76478;BME280;65309;49.790;18.972;2023-07-31T20:01:18;59871.00;;;-145.46;72.32
76478;BME280;65309;49.790;18.972;2023-07-31T20:06:21;59864.69;;;-145.46;72.73
76478;BME280;65309;49.790;18.972;2023-07-31T20:11:24;59828.97;;;-145.46;72.31
76478;BME280;65309;49.790;18.972;2023-07-31T20:16:26;59898.34;;;-145.46;71.61
76478;BME280;65309;49.790;18.972;2023-07-31T20:21:28;59894.13;;;-145.46;70.78
76478;BME280;65309;49.790;18.972;2023-07-31T20:26:31;59902.53;;;-145.46;70.95
76478;BME280;65309;49.790;18.972;2023-07-31T20:31:34;59852.09;;;-145.46;71.31
76478;BME280;65309;49.790;18.972;2023-07-31T20:36:37;59873.09;;;-145.46;71.99
76478;BME280;65309;49.790;18.972;2023-07-31T20:41:42;59892.03;;;-145.46;72.10
76478;BME280;65309;49.790;18.972;2023-07-31T20:46:45;59894.13;;;-145.46;71.76
76478;BME280;65309;49.790;18.972;2023-07-31T20:51:47;59883.63;;;-145.46;71.88
76478;BME280;65309;49.790;18.972;2023-07-31T20:56:51;59849.97;;;-145.46;71.24
76478;BME280;65309;49.790;18.972;2023-07-31T21:01:58;59873.09;;;-145.46;71.13
76478;BME280;65309;49.790;18.972;2023-07-31T21:07:01;59898.34;;;-145.46;70.63
76478;BME280;65309;49.790;18.972;2023-07-31T21:12:06;59889.94;;;-145.46;69.54
76478;BME280;65309;49.790;18.972;2023-07-31T21:17:08;59889.94;;;-145.46;68.54
76478;BME280;65309;49.790;18.972;2023-07-31T21:22:10;59885.72;;;-145.46;63.38
76478;BME280;65309;49.790;18.972;2023-07-31T21:27:14;59860.50;;;-145.46;59.06
76478;BME280;65309;49.790;18.972;2023-07-31T21:32:16;59833.16;;;-145.46;56.60
76478;BME280;65309;49.790;18.972;2023-07-31T21:37:18;59822.66;;;-145.46;55.64
76478;BME280;65309;49.790;18.972;2023-07-31T21:42:21;59866.81;;;-145.46;54.51
76478;BME280;65309;49.790;18.972;2023-07-31T21:47:23;59826.84;;;-145.46;53.43
76478;BME280;65309;49.790;18.972;2023-07-31T21:52:26;59860.50;;;-145.46;52.65
76478;BME280;65309;49.790;18.972;2023-07-31T21:57:29;59862.59;;;-145.46;51.88
76478;BME280;65309;49.790;18.972;2023-07-31T22:02:31;59814.25;;;-145.46;51.96
76478;BME280;65309;49.790;18.972;2023-07-31T22:07:33;59839.47;;;-145.46;52.19
76478;BME280;65309;49.790;18.972;2023-07-31T22:12:37;59847.88;;;-145.46;50.74
76478;BME280;65309;49.790;18.972;2023-07-31T22:17:39;59805.84;;;-145.46;51.21
76478;BME280;65309;49.790;18.972;2023-07-31T22:22:41;59822.66;;;-145.46;50.84
76478;BME280;65309;49.790;18.972;2023-07-31T22:27:45;59824.75;;;-145.46;50.72
76478;BME280;65309;49.790;18.972;2023-07-31T22:32:47;59835.28;;;-145.46;49.86
76478;BME280;65309;49.790;18.972;2023-07-31T22:37:49;59814.25;;;-145.46;49.87
76478;BME280;65309;49.790;18.972;2023-07-31T22:42:52;59784.81;;;-145.46;49.10
76478;BME280;65309;49.790;18.972;2023-07-31T22:47:57;59835.28;;;-145.46;49.46
76478;BME280;65309;49.790;18.972;2023-07-31T22:52:59;59826.84;;;-145.46;49.50
76478;BME280;65309;49.790;18.972;2023-07-31T22:58:03;59810.03;;;-145.46;50.16
76478;BME280;65309;49.790;18.972;2023-07-31T23:03:05;59780.63;;;-145.46;49.16
76478;BME280;65309;49.790;18.972;2023-07-31T23:08:07;59828.97;;;-145.46;50.33
76478;BME280;65309;49.790;18.972;2023-07-31T23:13:10;59814.25;;;-145.46;49.74
76478;BME280;65309;49.790;18.972;2023-07-31T23:18:13;59833.16;;;-145.46;48.69
76478;BME280;65309;49.790;18.972;2023-07-31T23:23:15;59856.28;;;-145.46;49.07
76478;BME280;65309;49.790;18.972;2023-07-31T23:28:18;59845.78;;;-145.46;48.60
76478;BME280;65309;49.790;18.972;2023-07-31T23:33:21;59818.44;;;-145.46;48.83
76478;BME280;65309;49.790;18.972;2023-07-31T23:38:23;59818.44;;;-145.46;48.52
76478;BME280;65309;49.790;18.972;2023-07-31T23:43:26;59820.56;;;-145.46;49.30
76478;BME280;65309;49.790;18.972;2023-07-31T23:48:28;59816.34;;;-145.46;49.38
76478;BME280;65309;49.790;18.972;2023-07-31T23:53:31;59849.97;;;-145.46;50.80
76478;BME280;65309;49.790;18.972;2023-07-31T23:58:35;59805.84;;;-145.46;50.95
